Sejita, Texas
Current Conditions -  °F | °C
As of 7:55 AM on Monday 24 Nov 2014 (Local Time) from KHBV Reporting Station
Clear Clear  
Wind Chill: 53°   Ceiling: Unl
Heat Index: 53°   Visibility: 10mi
Dew Point: 41°   Wind: 13mph
Humidity: 65%   Direction: 340°NNW
Pressure: 30.05"   Gusts: 18mph
Location:  27.5098°N, 98.639°W
Report Text: KHBV 241355Z AUTO 34011G16KT 10SM CLR 11/05 A3005 RMK AO2 T01140051
Loading
Personal Weather Stations






























Interactive Weather Map New forecast layout! Learn more

10-Day Weather Forecast

Advertisements
Track Severe Weather on mobile